createdAt,value
2019-01-31T00:01:41.950Z,3.39
2019-01-31T00:04:43.605Z,3.43
2019-01-31T00:07:42.674Z,3.54
2019-01-31T00:10:53.319Z,3.50
2019-01-31T00:13:50.978Z,3.34
2019-01-31T00:16:46.436Z,3.40
2019-01-31T00:19:45.602Z,3.47
2019-01-31T00:23:05.786Z,3.43
2019-01-31T00:26:34.381Z,3.41
2019-01-31T00:29:38.584Z,3.42
2019-01-31T00:32:47.682Z,3.34
2019-01-31T00:35:35.620Z,3.40
2019-01-31T00:38:37.173Z,3.47
2019-01-31T00:42:05.907Z,3.46
2019-01-31T00:45:01.938Z,3.25
2019-01-31T00:48:09.274Z,3.31
2019-01-31T00:50:53.508Z,3.32
2019-01-31T00:53:41.468Z,3.37
2019-01-31T00:56:54.752Z,3.32
2019-01-31T01:00:00.425Z,3.32
2019-01-31T01:03:12.459Z,3.25
2019-01-31T01:06:11.896Z,3.29
2019-01-31T01:09:07.764Z,3.31
2019-01-31T01:11:52.985Z,3.40
2019-01-31T01:15:09.168Z,3.39
2019-01-31T01:17:49.702Z,3.38
2019-01-31T01:21:06.158Z,3.39
2019-01-31T01:24:04.109Z,3.40
2019-01-31T01:27:11.035Z,3.52
2019-01-31T01:30:01.291Z,3.67
2019-01-31T01:33:11.033Z,3.68
2019-01-31T01:36:06.309Z,3.70
2019-01-31T01:39:19.750Z,3.61
2019-01-31T01:42:26.490Z,3.66
2019-01-31T01:45:25.789Z,3.61
2019-01-31T01:48:32.310Z,3.63
2019-01-31T01:51:26.558Z,3.69
2019-01-31T01:54:26.014Z,3.64
2019-01-31T01:57:32.245Z,3.65
2019-01-31T02:00:21.392Z,3.73
2019-01-31T02:03:53.280Z,3.65
2019-01-31T02:06:39.656Z,3.61
2019-01-31T02:09:33.556Z,3.64
2019-01-31T02:12:59.201Z,3.70
2019-01-31T02:16:03.614Z,3.71
2019-01-31T02:18:42.650Z,3.64
2019-01-31T02:21:40.569Z,3.62
2019-01-31T02:24:25.491Z,3.74
2019-01-31T02:27:12.962Z,3.77
2019-01-31T02:29:58.618Z,3.79
2019-01-31T02:33:18.328Z,3.82
2019-01-31T02:36:44.151Z,3.82
2019-01-31T02:39:44.571Z,3.79
2019-01-31T02:42:57.050Z,3.77
2019-01-31T02:46:06.033Z,3.79
2019-01-31T02:48:58.393Z,3.78
2019-01-31T02:52:20.709Z,3.85
2019-01-31T02:55:10.522Z,3.86
2019-01-31T02:58:04.909Z,3.85
2019-01-31T03:00:55.423Z,3.89
2019-01-31T03:03:50.940Z,3.88
2019-01-31T03:07:01.778Z,3.92
2019-01-31T03:09:55.919Z,3.99
2019-01-31T03:12:46.232Z,3.97
2019-01-31T03:15:42.486Z,4.03
2019-01-31T03:18:28.787Z,3.95
2019-01-31T03:21:31.856Z,4.01
2019-01-31T03:24:34.374Z,4.01
2019-01-31T03:27:29.789Z,4.01
2019-01-31T03:30:55.472Z,4.10
2019-01-31T03:33:53.546Z,4.12
2019-01-31T03:37:15.733Z,4.10
2019-01-31T03:40:24.454Z,4.08
2019-01-31T03:43:27.018Z,4.07
2019-01-31T03:46:27.906Z,4.00
2019-01-31T03:49:41.302Z,3.89
2019-01-31T03:52:50.489Z,3.81
2019-01-31T03:55:40.586Z,3.96
2019-01-31T03:58:39.387Z,3.98
2019-01-31T04:01:49.134Z,3.76
2019-01-31T04:04:26.389Z,3.83
2019-01-31T04:06:56.937Z,3.94
2019-01-31T04:09:29.992Z,3.91
2019-01-31T04:12:00.374Z,3.81
2019-01-31T04:14:30.499Z,3.83
2019-01-31T04:17:00.643Z,3.90
2019-01-31T04:19:31.347Z,3.95
2019-01-31T04:22:00.744Z,3.88
2019-01-31T04:24:30.886Z,3.81
2019-01-31T04:27:01.603Z,3.76
2019-01-31T04:29:31.029Z,3.84
2019-01-31T04:32:01.036Z,3.86
2019-01-31T04:34:30.413Z,3.95
2019-01-31T04:37:00.791Z,3.92
2019-01-31T04:39:30.665Z,3.72
2019-01-31T04:42:00.499Z,3.83
2019-01-31T04:44:30.317Z,3.70
2019-01-31T04:47:00.581Z,3.69
2019-01-31T04:49:30.393Z,3.78
2019-01-31T04:52:02.227Z,3.77
2019-01-31T04:54:33.024Z,3.81
2019-01-31T04:57:04.044Z,3.90
2019-01-31T04:59:33.424Z,3.93
2019-01-31T05:02:03.928Z,3.98
2019-01-31T05:04:34.810Z,3.99
2019-01-31T05:07:04.295Z,4.06
2019-01-31T05:09:34.001Z,4.09
2019-01-31T05:12:03.411Z,4.05
2019-01-31T05:14:32.804Z,4.05
2019-01-31T05:17:02.444Z,3.99
2019-01-31T05:19:31.818Z,3.91
2019-01-31T05:22:02.323Z,3.92
2019-01-31T05:24:33.412Z,3.88
2019-01-31T05:27:04.496Z,3.64
2019-01-31T05:29:35.080Z,3.69
2019-01-31T05:32:05.774Z,3.82
2019-01-31T05:34:35.198Z,3.88
2019-01-31T05:37:04.740Z,3.91
2019-01-31T05:39:36.018Z,3.86
2019-01-31T05:42:08.377Z,3.88
2019-01-31T05:44:37.783Z,3.93
2019-01-31T05:47:07.278Z,3.98
2019-01-31T05:49:36.700Z,4.01
2019-01-31T05:52:06.237Z,4.00
2019-01-31T05:54:35.667Z,4.03
2019-01-31T05:57:05.036Z,4.06
2019-01-31T05:59:34.413Z,4.10
2019-01-31T06:02:03.991Z,4.08
2019-01-31T06:04:33.346Z,4.11
2019-01-31T06:07:10.938Z,4.12
2019-01-31T06:09:35.730Z,4.14
2019-01-31T06:12:06.261Z,4.13
2019-01-31T06:14:37.171Z,4.08
2019-01-31T06:17:08.503Z,4.10
2019-01-31T06:19:39.792Z,4.01
2019-01-31T06:22:11.057Z,3.98
2019-01-31T06:24:40.668Z,3.97
2019-01-31T06:27:11.934Z,3.87
2019-01-31T06:29:41.701Z,3.91
2019-01-31T06:32:11.225Z,3.96
2019-01-31T06:34:40.754Z,3.91
2019-01-31T06:37:10.188Z,3.93
2019-01-31T06:39:41.442Z,3.90
2019-01-31T06:42:13.817Z,3.91
2019-01-31T06:44:43.231Z,3.90
2019-01-31T06:47:12.656Z,3.94
2019-01-31T06:49:42.055Z,3.97
2019-01-31T06:52:11.443Z,3.93
2019-01-31T06:54:40.986Z,3.93
2019-01-31T06:57:13.383Z,3.86
2019-01-31T06:59:42.898Z,3.93
2019-01-31T07:02:13.429Z,4.00
2019-01-31T07:04:42.822Z,3.96
2019-01-31T07:07:13.321Z,3.83
2019-01-31T07:09:42.783Z,3.84
2019-01-31T07:12:12.194Z,3.85
2019-01-31T07:14:41.690Z,3.85
2019-01-31T07:17:13.747Z,3.87
2019-01-31T07:19:44.974Z,3.90
2019-01-31T07:22:17.683Z,3.89
2019-01-31T07:24:47.248Z,3.94
2019-01-31T07:27:16.740Z,3.89
2019-01-31T07:29:46.259Z,3.91
2019-01-31T07:32:15.858Z,3.78
2019-01-31T07:34:47.113Z,3.78
2019-01-31T07:37:20.210Z,3.93
2019-01-31T07:39:49.768Z,3.96
2019-01-31T07:42:19.164Z,4.01
2019-01-31T07:44:48.573Z,3.96
2019-01-31T07:47:18.292Z,4.06
2019-01-31T07:49:49.141Z,4.06
2019-01-31T07:52:19.086Z,4.03
2019-01-31T07:54:48.560Z,4.02
2019-01-31T07:57:18.965Z,3.94
2019-01-31T07:59:48.394Z,3.94
2019-01-31T08:02:18.013Z,3.97
2019-01-31T08:04:47.546Z,3.83
2019-01-31T08:07:18.441Z,4.04
2019-01-31T08:09:47.968Z,3.98
2019-01-31T08:12:17.404Z,4.00
2019-01-31T08:14:46.816Z,4.03
2019-01-31T08:17:16.320Z,4.10
2019-01-31T08:19:45.759Z,4.13
2019-01-31T08:22:15.152Z,4.09
2019-01-31T08:24:47.881Z,4.11
2019-01-31T08:27:17.308Z,4.16
2019-01-31T08:29:47.845Z,4.20
2019-01-31T08:32:17.320Z,4.24
2019-01-31T08:34:46.895Z,4.21
2019-01-31T08:37:17.692Z,4.24
2019-01-31T08:39:47.403Z,4.26
2019-01-31T08:42:16.824Z,4.28
2019-01-31T08:44:46.231Z,4.30
2019-01-31T08:47:15.822Z,4.35
2019-01-31T08:49:45.228Z,4.23
2019-01-31T08:52:14.627Z,4.33
2019-01-31T08:54:44.099Z,4.36
2019-01-31T08:57:14.930Z,4.46
2019-01-31T08:59:44.370Z,4.51
2019-01-31T09:02:13.829Z,4.49
2019-01-31T09:04:43.246Z,4.61
2019-01-31T09:07:14.493Z,4.66
2019-01-31T09:09:45.085Z,4.82
2019-01-31T09:12:15.585Z,4.81
2019-01-31T09:14:45.365Z,4.90
2019-01-31T09:17:15.856Z,5.19
2019-01-31T09:19:45.286Z,5.18
2019-01-31T09:22:30.038Z,5.15
2019-01-31T09:25:45.382Z,5.01
2019-01-31T09:29:02.032Z,4.88
2019-01-31T09:32:34.815Z,4.93
2019-01-31T09:35:37.704Z,4.91
2019-01-31T09:38:47.269Z,4.76
2019-01-31T09:41:53.058Z,4.70
2019-01-31T09:45:06.769Z,4.58
2019-01-31T09:48:00.600Z,4.73
2019-01-31T09:51:07.485Z,4.80
2019-01-31T09:54:17.930Z,4.81
2019-01-31T09:57:46.517Z,4.83
2019-01-31T10:00:29.397Z,4.87
2019-01-31T10:03:38.785Z,4.92
2019-01-31T10:06:31.255Z,4.97
2019-01-31T10:09:57.101Z,4.94
2019-01-31T10:13:13.570Z,4.89
2019-01-31T10:16:15.236Z,4.89
2019-01-31T10:19:16.039Z,4.80
2019-01-31T10:22:08.085Z,4.91
2019-01-31T10:25:02.242Z,5.03
2019-01-31T10:27:56.849Z,5.14
2019-01-31T10:30:57.581Z,5.11
2019-01-31T10:33:58.833Z,5.02
2019-01-31T10:36:51.580Z,4.81
2019-01-31T10:39:38.715Z,4.97
2019-01-31T10:42:50.537Z,5.08
2019-01-31T10:45:59.541Z,5.05
2019-01-31T10:49:05.790Z,4.95
2019-01-31T10:52:11.862Z,5.13
2019-01-31T10:55:22.088Z,5.17
2019-01-31T10:58:35.216Z,5.13
2019-01-31T11:02:07.435Z,5.12
2019-01-31T11:05:35.840Z,5.21
2019-01-31T11:08:55.377Z,5.22
2019-01-31T11:12:11.923Z,5.20
2019-01-31T11:14:58.894Z,5.41
2019-01-31T11:18:04.820Z,5.36
2019-01-31T11:21:12.537Z,5.44
2019-01-31T11:24:08.872Z,5.39
2019-01-31T11:27:14.184Z,5.26
2019-01-31T11:30:21.643Z,5.11
2019-01-31T11:33:31.669Z,5.16
2019-01-31T11:36:47.152Z,5.24
2019-01-31T11:39:47.640Z,5.41
2019-01-31T11:43:11.320Z,5.36
2019-01-31T11:46:10.387Z,5.08
2019-01-31T11:49:23.991Z,5.17
2019-01-31T11:52:22.580Z,5.26
2019-01-31T11:55:32.790Z,5.38
2019-01-31T11:58:20.523Z,5.39
2019-01-31T12:00:52.902Z,5.48
2019-01-31T12:03:21.501Z,5.51
2019-01-31T12:05:51.119Z,5.54
2019-01-31T12:08:20.593Z,5.66
2019-01-31T12:10:51.521Z,5.60
2019-01-31T12:13:23.947Z,5.72
2019-01-31T12:15:55.853Z,5.63
2019-01-31T12:18:25.536Z,5.52
2019-01-31T12:20:55.173Z,5.70
2019-01-31T12:23:24.605Z,5.72
2019-01-31T12:25:55.191Z,5.77
2019-01-31T12:28:26.424Z,5.85
2019-01-31T12:30:56.952Z,5.83
2019-01-31T12:33:26.556Z,5.87
2019-01-31T12:35:57.331Z,6.10
2019-01-31T12:38:36.468Z,6.13
2019-01-31T12:40:58.123Z,6.16
2019-01-31T12:43:34.826Z,6.19
2019-01-31T12:45:58.954Z,5.89
2019-01-31T12:48:28.775Z,5.70
2019-01-31T12:50:58.238Z,5.62
2019-01-31T12:53:30.371Z,5.55
2019-01-31T12:55:59.843Z,5.61
2019-01-31T12:58:33.740Z,5.51
2019-01-31T13:01:01.810Z,5.57
2019-01-31T13:03:31.730Z,5.46
2019-01-31T13:06:03.357Z,5.38
2019-01-31T13:08:32.868Z,5.36
2019-01-31T13:11:02.323Z,5.38
2019-01-31T13:13:32.043Z,5.26
2019-01-31T13:16:01.972Z,5.28
2019-01-31T13:18:31.779Z,5.34
2019-01-31T13:21:01.979Z,5.34
2019-01-31T13:23:33.200Z,5.33
2019-01-31T13:26:03.722Z,5.23
2019-01-31T13:28:35.452Z,5.31
2019-01-31T13:31:05.087Z,5.24
2019-01-31T13:33:34.818Z,5.15
2019-01-31T13:36:05.914Z,5.02
2019-01-31T13:38:36.529Z,5.17
2019-01-31T13:41:05.993Z,5.25
2019-01-31T13:43:35.712Z,5.26
2019-01-31T13:46:05.899Z,5.19
2019-01-31T13:48:35.323Z,5.15
2019-01-31T13:51:07.909Z,5.20
2019-01-31T13:53:39.263Z,5.25
2019-01-31T13:56:11.407Z,5.22
2019-01-31T13:58:41.014Z,5.21
2019-01-31T14:01:10.615Z,5.23
2019-01-31T14:03:43.719Z,5.29
2019-01-31T14:06:14.317Z,5.36
2019-01-31T14:08:44.923Z,5.50
2019-01-31T14:11:14.327Z,5.55
2019-01-31T14:13:45.385Z,5.54
2019-01-31T14:16:17.766Z,5.55
2019-01-31T14:18:47.554Z,5.52
2019-01-31T14:21:17.244Z,5.46
2019-01-31T14:23:47.745Z,5.47
2019-01-31T14:26:18.465Z,5.44
2019-01-31T14:28:48.971Z,5.41
2019-01-31T14:31:18.397Z,5.47
2019-01-31T14:33:50.928Z,5.43
2019-01-31T14:36:21.128Z,5.44
2019-01-31T14:38:50.529Z,5.43
2019-01-31T14:41:23.012Z,5.45
2019-01-31T14:43:52.628Z,5.39
2019-01-31T14:46:22.349Z,5.45
2019-01-31T14:48:51.640Z,5.49
2019-01-31T14:51:22.567Z,5.50
2019-01-31T14:53:54.973Z,5.39
2019-01-31T14:56:24.476Z,5.34
2019-01-31T14:58:54.188Z,5.46
2019-01-31T15:01:23.694Z,5.53
2019-01-31T15:03:55.329Z,5.54
2019-01-31T15:06:26.348Z,5.54
2019-01-31T15:08:55.772Z,5.49
2019-01-31T15:11:25.356Z,5.50
2019-01-31T15:13:55.123Z,5.45
2019-01-31T15:16:24.571Z,5.45
2019-01-31T15:18:54.042Z,5.46
2019-01-31T15:21:23.657Z,5.32
2019-01-31T15:23:53.163Z,5.33
2019-01-31T15:26:22.773Z,5.28
2019-01-31T15:28:52.491Z,5.25
2019-01-31T15:31:23.399Z,5.25
2019-01-31T15:33:52.865Z,5.23
2019-01-31T15:36:24.393Z,5.23
2019-01-31T15:38:53.828Z,5.20
2019-01-31T15:41:23.218Z,5.21
2019-01-31T15:43:52.909Z,5.24
2019-01-31T15:46:22.404Z,5.25
2019-01-31T15:48:52.122Z,5.25
2019-01-31T15:51:21.704Z,5.27
2019-01-31T15:53:51.112Z,5.27
2019-01-31T15:56:20.604Z,5.26
2019-01-31T15:58:50.242Z,5.23
2019-01-31T16:01:20.205Z,5.20
2019-01-31T16:03:51.267Z,5.21
2019-01-31T16:06:22.324Z,5.19
2019-01-31T16:08:51.723Z,5.15
2019-01-31T16:11:21.196Z,5.08
2019-01-31T16:13:50.634Z,5.01
2019-01-31T16:16:22.562Z,4.92
2019-01-31T16:18:53.793Z,4.93
2019-01-31T16:21:27.221Z,4.90
2019-01-31T16:23:57.847Z,4.80
2019-01-31T16:26:27.353Z,4.70
2019-01-31T16:28:56.809Z,4.65
2019-01-31T16:31:26.244Z,4.59
2019-01-31T16:33:56.963Z,4.55
2019-01-31T16:36:26.622Z,4.51
2019-01-31T16:38:57.874Z,4.49
2019-01-31T16:41:28.758Z,4.40
2019-01-31T16:43:59.878Z,4.36
2019-01-31T16:46:29.401Z,4.30
2019-01-31T16:48:59.852Z,4.28
2019-01-31T16:51:32.307Z,4.21
2019-01-31T16:54:01.728Z,4.25
2019-01-31T16:56:33.058Z,4.19
2019-01-31T16:59:03.073Z,4.15
2019-01-31T17:01:34.776Z,4.17
2019-01-31T17:04:04.516Z,4.07
2019-01-31T17:06:35.581Z,4.06
2019-01-31T17:09:08.160Z,4.01
2019-01-31T17:11:39.447Z,3.98
2019-01-31T17:14:09.206Z,4.04
2019-01-31T17:16:39.768Z,4.06
2019-01-31T17:19:10.479Z,3.95
2019-01-31T17:21:40.097Z,3.91
2019-01-31T17:24:09.564Z,3.89
2019-01-31T17:26:39.398Z,3.90
2019-01-31T17:29:10.148Z,3.86
2019-01-31T17:31:39.643Z,3.77
2019-01-31T17:34:09.043Z,3.69
2019-01-31T17:36:38.519Z,3.60
2019-01-31T17:39:10.274Z,3.51
2019-01-31T17:41:39.812Z,3.52
2019-01-31T17:44:09.496Z,3.55
2019-01-31T17:46:38.948Z,3.55
2019-01-31T17:49:10.366Z,3.47
2019-01-31T17:51:40.140Z,3.35
2019-01-31T17:54:11.435Z,3.33
2019-01-31T17:56:40.818Z,3.34
2019-01-31T17:59:10.300Z,3.25
2019-01-31T18:01:39.767Z,3.20
2019-01-31T18:04:12.388Z,3.28
2019-01-31T18:06:42.259Z,3.33
2019-01-31T18:09:13.678Z,3.26
2019-01-31T18:11:43.115Z,3.28
2019-01-31T18:14:12.899Z,3.30
2019-01-31T18:16:42.331Z,3.30
2019-01-31T18:19:13.559Z,3.15
2019-01-31T18:21:44.275Z,3.16
2019-01-31T18:24:15.003Z,3.16
2019-01-31T18:26:44.431Z,3.11
2019-01-31T18:29:14.093Z,3.05
2019-01-31T18:31:43.629Z,3.10
2019-01-31T18:34:13.085Z,3.04
2019-01-31T18:36:45.764Z,3.00
2019-01-31T18:39:16.236Z,2.95
2019-01-31T18:41:45.662Z,2.95
2019-01-31T18:44:15.159Z,2.97
2019-01-31T18:46:46.412Z,2.98
2019-01-31T18:49:18.714Z,2.93
2019-01-31T18:51:48.259Z,2.92
2019-01-31T18:54:20.438Z,2.92
2019-01-31T18:56:51.532Z,2.89
2019-01-31T18:59:21.230Z,2.84
2019-01-31T19:01:50.644Z,2.83
2019-01-31T19:04:20.076Z,2.75
2019-01-31T19:06:49.753Z,2.74
2019-01-31T19:09:19.586Z,2.69
2019-01-31T19:11:48.989Z,2.63
2019-01-31T19:14:18.553Z,2.68
2019-01-31T19:16:48.004Z,2.69
2019-01-31T19:19:17.448Z,2.68
2019-01-31T19:21:49.921Z,2.61
2019-01-31T19:24:19.424Z,2.58
2019-01-31T19:26:50.078Z,2.69
2019-01-31T19:29:21.164Z,2.68
2019-01-31T19:31:50.663Z,2.67
2019-01-31T19:34:20.132Z,2.68
2019-01-31T19:36:53.539Z,2.77
2019-01-31T19:39:23.030Z,2.72
2019-01-31T19:41:52.568Z,2.76
2019-01-31T19:44:23.490Z,2.71
2019-01-31T19:46:54.787Z,2.75
2019-01-31T19:49:24.229Z,2.73
2019-01-31T19:51:53.794Z,2.73
2019-01-31T19:54:23.223Z,2.69
2019-01-31T19:56:54.170Z,2.71
2019-01-31T19:59:23.604Z,2.68
2019-01-31T20:01:53.196Z,2.57
2019-01-31T20:04:22.581Z,2.63
2019-01-31T20:06:54.976Z,2.54
2019-01-31T20:09:28.308Z,2.56
2019-01-31T20:11:57.699Z,2.56
2019-01-31T20:14:27.933Z,2.48
2019-01-31T20:16:59.002Z,2.47
2019-01-31T20:19:28.402Z,2.38
2019-01-31T20:21:59.636Z,2.48
2019-01-31T20:24:30.216Z,2.42
2019-01-31T20:26:59.598Z,2.40
2019-01-31T20:29:30.457Z,2.25
2019-01-31T20:32:00.009Z,2.26
2019-01-31T20:34:30.610Z,2.34
2019-01-31T20:37:00.337Z,2.32
2019-01-31T20:39:32.853Z,2.36
2019-01-31T20:42:03.362Z,2.31
2019-01-31T20:44:33.025Z,2.32
2019-01-31T20:47:02.473Z,2.31
2019-01-31T20:49:31.932Z,2.23
2019-01-31T20:52:01.556Z,2.26
2019-01-31T20:54:33.420Z,2.23
2019-01-31T20:57:02.833Z,2.21
2019-01-31T20:59:32.574Z,2.21
2019-01-31T21:02:03.854Z,2.12
2019-01-31T21:04:37.244Z,2.14
2019-01-31T21:07:06.190Z,2.18
2019-01-31T21:09:35.604Z,2.16
2019-01-31T21:12:06.121Z,2.16
2019-01-31T21:14:38.547Z,2.16
2019-01-31T21:17:08.623Z,2.11
2019-01-31T21:19:39.263Z,2.09
2019-01-31T21:22:09.109Z,2.07
2019-01-31T21:24:38.564Z,2.08
2019-01-31T21:27:09.317Z,2.12
2019-01-31T21:29:38.921Z,2.07
2019-01-31T21:32:08.404Z,2.03
2019-01-31T21:34:38.208Z,2.02
2019-01-31T21:37:08.246Z,1.93
2019-01-31T21:39:39.181Z,1.97
2019-01-31T21:42:09.585Z,1.95
2019-01-31T21:44:39.359Z,1.93
2019-01-31T21:47:08.952Z,1.90
2019-01-31T21:49:43.120Z,1.81
2019-01-31T21:52:14.135Z,1.74
2019-01-31T21:54:43.624Z,1.75
2019-01-31T21:57:13.088Z,1.71
2019-01-31T21:59:43.678Z,1.69
2019-01-31T22:02:14.146Z,1.69
2019-01-31T22:04:44.688Z,1.70
2019-01-31T22:07:14.158Z,1.64
2019-01-31T22:09:43.654Z,1.65
2019-01-31T22:12:13.192Z,1.63
2019-01-31T22:14:42.706Z,1.52
2019-01-31T22:17:14.791Z,1.52
2019-01-31T22:19:45.059Z,1.59
2019-01-31T22:22:16.626Z,1.57
2019-01-31T22:24:47.488Z,1.55
2019-01-31T22:27:17.074Z,1.54
2019-01-31T22:29:47.807Z,1.51
2019-01-31T22:32:17.312Z,1.58
2019-01-31T22:34:46.801Z,1.57
2019-01-31T22:37:16.478Z,1.53
2019-01-31T22:39:46.077Z,1.47
2019-01-31T22:42:17.052Z,1.55
2019-01-31T22:44:47.504Z,1.60
2019-01-31T22:47:25.668Z,1.57
2019-01-31T22:49:48.355Z,1.53
2019-01-31T22:52:18.006Z,1.64
2019-01-31T22:54:47.407Z,1.64
2019-01-31T22:57:17.030Z,1.63
2019-01-31T22:59:48.470Z,1.51
2019-01-31T23:02:17.986Z,1.47
2019-01-31T23:04:48.842Z,1.52
2019-01-31T23:07:18.341Z,1.55
2019-01-31T23:09:47.783Z,1.57
2019-01-31T23:12:17.235Z,1.48
2019-01-31T23:14:46.715Z,1.52
2019-01-31T23:17:16.158Z,1.45
2019-01-31T23:19:46.996Z,1.50
2019-01-31T23:22:16.435Z,1.50
2019-01-31T23:24:46.086Z,1.52
2019-01-31T23:27:17.160Z,1.42
2019-01-31T23:29:46.566Z,1.45
2019-01-31T23:32:16.069Z,1.49
2019-01-31T23:34:45.536Z,1.40
2019-01-31T23:37:16.113Z,1.40
2019-01-31T23:39:45.565Z,1.40
2019-01-31T23:42:15.342Z,1.36
2019-01-31T23:44:44.773Z,1.23
2019-01-31T23:47:15.752Z,1.32
2019-01-31T23:49:45.397Z,1.27
2019-01-31T23:52:15.892Z,1.20
2019-01-31T23:54:47.130Z,1.17
2019-01-31T23:57:18.276Z,1.22
2019-01-31T23:59:47.715Z,1.24
